Pagina principale
METAR-TAF:

METAR-TAF

Aeroporti :

Aeroporto di Basilea-Mulhouse-Friburgo

Basilea-Mulhouse, Francia

latitudine: 47-36N, longitudine: 007-31E, altezza: 270 m

Osservazione

Il bollettino è stato emesso 36 minuti fa, alle 19:30 UTC
Vento 5 kt da nord-ovest
Temperature 27°C
Umidità 70%
Pressione 1020 hPa
Visibilità 10 km o più
nessuna nube inferiore a 1500 m e nessun cumulonembo

METAR: LFSB 251930Z 32005KT CAVOK 27/21 Q1020 NOSIG

Ora: 22:06 (20:06 UTC)

Previsione

Il bollettino è stato emesso 3 ore e 6 minuti fa, alle 17:00 UTC
Previsione valida dal 25 alle 18 UTC al 26 alle 18 UTC
Vento 5 kt da nord-est
Visibilità 10 km o più
nessuna nube inferiore a 1500 m e nessun cumulonembo

TAF: LFSB 251700Z 2518/2618 04005KT CAVOK

Osservazioni e previsioni meteorologiche di più di 4000 aeroporti (messaggi METAR e TAF).

Le stazioni disponibili sono rappresentate dai dischi gialli e rossi sulla carta.

Puntare il mouse per vedere il nome della stazione.

Clicca sopra per visualizzare le osservazioni e previsioni meteorologiche.

Per cambiare la mappa : fare clic sui pulsanti verdi con una croce nera per ingrandire, il pulsante verde con un trattino per diminuire, o sulla freccia verde per le mappe adiacenti.


METAR-TAF: